Time;durP1;ratioP1;P1;durP2;ratioP2;P2;SDS_P1;SDS_P2;PMS_P1;PMS_P2;Temp;Humidity;BMP_temperature;BMP_pressure;BME280_temperature;BME280_humidity;BME280_pressure;Samples;Min_cycle;Max_cycle;Signal;HPM_P1;HPM_P2
2023/03/31 00:00:20;;;;;;;9.40;3.40;;;;;;;8.62;73.61;99454.90;130711;1254;114715;-78
2023/03/31 00:03:42;;;;;;;7.40;3.20;;;;;;;8.64;73.57;99454.45;130679;1272;115207;-79
2023/03/31 00:06:45;;;;;;;5.40;3.00;;;;;;;8.66;73.54;99451.52;130442;1254;115066;-77
2023/03/31 00:09:47;;;;;;;5.20;3.20;;;;;;;8.68;73.56;99444.14;130365;1254;114727;-77
2023/03/31 00:12:50;;;;;;;7.40;3.00;;;;;;;8.69;73.53;99446.73;130620;1254;115204;-76
2023/03/31 00:16:00;;;;;;;7.20;3.30;;;;;;;8.67;73.43;99442.20;130426;1254;115627;-77
2023/03/31 00:19:03;;;;;;;6.50;3.70;;;;;;;8.64;73.22;99444.84;130473;1273;128972;-78
2023/03/31 00:22:05;;;;;;;10.20;3.30;;;;;;;8.61;73.24;99452.33;130795;1251;114798;-78
2023/03/31 00:25:10;;;;;;;9.10;3.60;;;;;;;8.57;73.08;99450.58;130524;1254;114692;-78
2023/03/31 00:28:12;;;;;;;;;;;;;;;8.52;73.00;99448.17;130757;1251;114744;-79
2023/03/31 00:31:15;;;;;;;6.00;2.60;;;;;;;8.46;73.07;99447.23;130707;1273;115207;-77
2023/03/31 00:34:18;;;;;;;6.20;3.00;;;;;;;8.40;73.26;99444.00;130042;1254;114807;-74
2023/03/31 00:37:20;;;;;;;9.90;3.60;;;;;;;8.32;73.05;99441.75;130798;1254;115496;-78
2023/03/31 00:40:22;;;;;;;9.20;3.20;;;;;;;8.25;73.03;99438.58;130680;1253;114722;-79
2023/03/31 00:43:33;;;;;;;6.40;3.70;;;;;;;8.17;73.07;99440.23;130383;1256;116479;-79
2023/03/31 00:47:01;;;;;;;6.10;3.40;;;;;;;8.08;73.10;99436.81;130826;1249;114709;-78
2023/03/31 00:50:05;;;;;;;7.70;3.80;;;;;;;7.98;73.20;99431.25;130155;1251;115095;-79
2023/03/31 00:53:11;;;;;;;8.90;5.00;;;;;;;7.89;73.12;99427.66;130249;1273;129052;-78
2023/03/31 00:56:14;;;;;;;10.40;4.60;;;;;;;7.81;73.26;99424.71;130541;1272;115159;-79
2023/03/31 00:59:16;;;;;;;8.30;4.60;;;;;;;7.73;73.30;99431.32;130343;1251;115195;-79
2023/03/31 01:02:24;;;;;;;17.90;5.60;;;;;;;7.66;73.36;99430.29;130471;1251;114759;-75
2023/03/31 01:05:41;;;;;;;8.20;4.30;;;;;;;7.59;73.66;99421.38;130714;1251;114803;-79
2023/03/31 01:08:43;;;;;;;9.50;4.40;;;;;;;7.53;73.58;99415.83;130607;1251;129127;-77
2023/03/31 01:11:46;;;;;;;10.40;4.90;;;;;;;7.47;73.73;99416.69;130479;1255;115163;-78
2023/03/31 01:14:49;;;;;;;8.70;4.50;;;;;;;7.40;73.80;99411.84;130333;1251;114807;-79
2023/03/31 01:17:54;;;;;;;10.10;4.40;;;;;;;7.35;73.98;99408.55;130513;1255;114823;-80
2023/03/31 01:21:17;;;;;;;8.80;4.80;;;;;;;7.29;74.38;99409.23;130537;1251;115189;-79
2023/03/31 01:24:46;;;;;;;6.60;4.10;;;;;;;7.23;74.53;99405.63;130440;1254;127811;-77
2023/03/31 01:28:04;;;;;;;12.00;4.40;;;;;;;7.17;74.40;99403.95;130296;1273;115173;-80
2023/03/31 01:31:19;;;;;;;10.90;5.90;;;;;;;7.13;74.53;99406.80;130538;1254;114747;-79
2023/03/31 01:34:38;;;;;;;8.80;5.00;;;;;;;7.09;74.43;99401.86;130397;1259;116011;-80
2023/03/31 01:38:12;;;;;;;9.00;4.70;;;;;;;7.04;74.41;99401.23;130375;1256;114897;-80
2023/03/31 01:41:35;;;;;;;9.10;5.00;;;;;;;6.97;74.26;99393.77;130204;1251;128022;-80
2023/03/31 01:44:56;;;;;;;8.90;4.70;;;;;;;6.88;74.39;99392.23;130467;1267;114737;-80
2023/03/31 01:48:08;;;;;;;13.00;5.00;;;;;;;6.80;74.31;99393.01;130701;1251;114634;-80
2023/03/31 01:51:31;;;;;;;7.60;4.60;;;;;;;6.72;74.34;99394.27;130365;1270;114967;-80
2023/03/31 01:54:50;;;;;;;10.50;4.90;;;;;;;6.63;74.60;99388.30;130484;1257;114839;-81
2023/03/31 01:57:59;;;;;;;9.40;4.40;;;;;;;6.57;74.78;99392.48;130119;1259;127980;-81
2023/03/31 02:01:05;;;;;;;14.30;5.60;;;;;;;6.52;74.72;99390.58;130373;1251;115246;-81
2023/03/31 02:04:18;;;;;;;10.60;5.40;;;;;;;6.47;74.75;99391.18;130531;1251;114824;-81
2023/03/31 02:07:26;;;;;;;12.40;5.70;;;;;;;6.42;74.87;99388.21;130620;1250;114833;-81
2023/03/31 02:10:29;;;;;;;8.30;5.00;;;;;;;6.38;75.03;99385.74;130342;1273;114866;-79
2023/03/31 02:13:34;;;;;;;9.20;5.30;;;;;;;6.35;75.24;99383.95;130499;1257;128539;-79
2023/03/31 02:16:40;;;;;;;12.90;6.00;;;;;;;6.32;75.36;99387.29;130507;1257;114782;-80
2023/03/31 02:19:45;;;;;;;11.00;5.90;;;;;;;6.28;75.48;99382.14;130535;1256;114795;-80
2023/03/31 02:22:53;;;;;;;9.10;5.70;;;;;;;6.26;75.63;99379.43;130253;1251;114803;-80
2023/03/31 02:26:02;;;;;;;14.90;7.60;;;;;;;6.25;75.78;99379.61;130537;1273;114926;-79
2023/03/31 02:29:05;;;;;;;14.30;7.00;;;;;;;6.24;75.92;99375.05;130431;1257;127696;-80
2023/03/31 02:32:25;;;;;;;12.30;7.00;;;;;;;6.23;75.78;99365.68;130689;1251;115416;-80
2023/03/31 02:35:28;;;;;;;12.70;6.90;;;;;;;6.23;75.99;99369.41;130575;1250;115112;-81
2023/03/31 02:38:38;;;;;;;17.80;7.50;;;;;;;6.22;76.16;99371.92;130816;1251;114725;-80
2023/03/31 02:41:41;;;;;;;11.00;7.10;;;;;;;6.22;76.19;99371.06;130290;1254;114716;-79
2023/03/31 02:44:44;;;;;;;11.70;7.50;;;;;;;6.22;76.37;99366.79;130477;1249;114849;-80
2023/03/31 02:47:46;;;;;;;15.20;8.00;;;;;;;6.22;76.22;99364.12;130664;1251;114791;-81
2023/03/31 02:51:10;;;;;;;13.50;7.50;;;;;;;6.22;76.27;99353.34;130827;1254;114718;-80
2023/03/31 02:54:26;;;;;;;18.00;8.70;;;;;;;6.21;76.34;99351.95;130398;1260;114801;-81
2023/03/31 02:57:34;;;;;;;14.90;8.80;;;;;;;6.19;76.29;99350.27;130818;1251;114801;-81
2023/03/31 03:01:03;;;;;;;15.70;9.40;;;;;;;6.18;76.55;99345.19;130782;1254;114708;-79
2023/03/31 03:04:16;;;;;;;15.30;8.90;;;;;;;6.18;76.64;99339.17;130687;1253;129656;-79
2023/03/31 03:07:28;;;;;;;17.50;9.20;;;;;;;6.18;76.85;99337.21;130456;1259;116371;-80
2023/03/31 03:10:43;;;;;;;13.20;9.80;;;;;;;6.19;77.05;99338.95;130391;1255;114792;-78
2023/03/31 03:13:46;;;;;;;15.40;10.20;;;;;;;6.20;77.06;99337.30;130499;1260;114645;-74
2023/03/31 03:16:55;;;;;;;13.80;10.00;;;;;;;6.21;77.05;99331.92;130734;1254;114734;-73
2023/03/31 03:20:06;;;;;;;16.40;9.90;;;;;;;6.20;77.00;99329.48;130207;1257;127828;-80
2023/03/31 03:23:08;;;;;;;12.60;8.60;;;;;;;6.21;77.15;99332.64;130811;1251;115285;-80
2023/03/31 03:26:10;;;;;;;13.10;9.40;;;;;;;6.20;77.02;99330.75;130407;1252;115097;-81
2023/03/31 03:29:13;;;;;;;14.80;9.70;;;;;;;6.19;77.06;99330.78;130852;1250;115408;-79
2023/03/31 03:32:15;;;;;;;14.60;9.60;;;;;;;6.17;76.88;99327.52;130165;1254;114873;-79
2023/03/31 03:35:18;;;;;;;14.20;9.70;;;;;;;6.14;76.93;99329.94;130490;1252;114782;-80
2023/03/31 03:38:20;;;;;;;17.50;10.80;;;;;;;6.11;77.16;99329.73;130672;1254;114798;-81
2023/03/31 03:41:22;;;;;;;13.60;9.70;;;;;;;6.10;77.03;99325.02;130600;1254;114709;-81
2023/03/31 03:44:25;;;;;;;21.70;10.40;;;;;;;6.07;76.99;99319.08;130433;1257;115233;-81
2023/03/31 03:47:28;;;;;;;15.60;9.80;;;;;;;6.05;77.16;99314.73;130592;1254;114740;-81
2023/03/31 03:50:30;;;;;;;17.30;10.20;;;;;;;6.02;76.94;99312.59;130910;1253;114686;-81
2023/03/31 03:53:32;;;;;;;18.50;9.80;;;;;;;5.99;77.03;99310.96;130416;1252;114660;-81
2023/03/31 03:56:34;;;;;;;14.50;9.80;;;;;;;5.97;77.31;99309.26;130119;1273;114786;-81
2023/03/31 03:59:36;;;;;;;19.60;11.00;;;;;;;5.95;77.17;99307.95;130390;1254;114703;-81
2023/03/31 04:02:39;;;;;;;17.00;10.90;;;;;;;5.93;77.36;99311.40;130468;1254;114721;-82
2023/03/31 04:05:41;;;;;;;20.20;11.80;;;;;;;5.91;77.37;99310.41;130769;1254;115390;-81
2023/03/31 04:08:44;;;;;;;18.70;11.60;;;;;;;5.89;77.19;99312.99;130799;1254;114739;-81
2023/03/31 04:11:46;;;;;;;21.20;11.80;;;;;;;5.87;77.22;99309.00;130838;1254;114760;-81
2023/03/31 04:14:48;;;;;;;16.00;11.20;;;;;;;5.82;77.37;99305.69;130555;1251;114664;-82
2023/03/31 04:17:53;;;;;;;17.00;11.90;;;;;;;5.79;77.25;99303.18;130555;1254;115199;-81
2023/03/31 04:21:05;;;;;;;15.70;12.20;;;;;;;5.76;77.41;99299.93;130208;1272;128334;-81
2023/03/31 04:24:07;;;;;;;18.40;11.90;;;;;;;5.73;77.42;99296.16;130381;1256;115329;-79
2023/03/31 04:27:12;;;;;;;19.50;12.50;;;;;;;5.70;77.63;99295.95;130592;1255;115167;-82
2023/03/31 04:30:21;;;;;;;22.30;12.30;;;;;;;5.68;77.50;99295.18;130301;1254;114747;-82
2023/03/31 04:33:23;;;;;;;22.80;12.70;;;;;;;5.65;77.47;99293.34;130344;1255;114831;-82
2023/03/31 04:36:27;;;;;;;21.10;13.70;;;;;;;5.62;77.56;99289.08;130278;1257;114826;-82
2023/03/31 04:39:29;;;;;;;20.90;14.00;;;;;;;5.59;77.58;99285.66;130641;1265;114855;-80
2023/03/31 04:42:31;;;;;;;20.20;13.90;;;;;;;5.57;77.79;99279.89;130523;1257;114728;-80
2023/03/31 04:45:34;;;;;;;18.40;14.20;;;;;;;5.55;77.66;99279.80;130231;1265;114762;-82
2023/03/31 04:48:36;;;;;;;31.30;15.80;;;;;;;5.55;77.83;99281.40;130368;1251;114816;-83
2023/03/31 04:51:38;;;;;;;20.90;14.70;;;;;;;5.55;77.65;99271.83;130263;1254;114870;-79
2023/03/31 04:54:41;;;;;;;26.50;14.30;;;;;;;5.55;77.84;99258.56;130518;1254;114858;-83
2023/03/31 04:57:43;;;;;;;23.90;14.40;;;;;;;5.55;77.93;99254.64;130525;1253;128055;-82
2023/03/31 05:00:46;;;;;;;21.30;13.60;;;;;;;5.56;78.02;99254.60;130688;1254;114647;-82
2023/03/31 05:03:48;;;;;;;22.40;14.30;;;;;;;5.59;78.09;99251.81;130727;1251;115099;-82
2023/03/31 05:06:50;;;;;;;22.70;15.30;;;;;;;5.62;78.18;99250.97;130688;1251;114708;-82
2023/03/31 05:09:52;;;;;;;24.60;15.20;;;;;;;5.68;78.36;99249.13;130714;1254;114724;-80
2023/03/31 05:12:54;;;;;;;21.80;15.40;;;;;;;5.74;78.46;99250.27;130508;1253;115583;-80
2023/03/31 05:15:57;;;;;;;18.80;13.80;;;;;;;5.79;78.31;99253.56;130480;1253;114721;-79
2023/03/31 05:18:59;;;;;;;23.70;14.60;;;;;;;5.82;78.20;99247.95;130396;1251;115320;-79
2023/03/31 05:22:02;;;;;;;17.60;14.20;;;;;;;5.87;78.23;99250.52;130805;1264;114789;-79
2023/03/31 05:25:07;;;;;;;18.30;14.40;;;;;;;5.91;78.12;99252.48;130358;1251;115169;-82
2023/03/31 05:28:09;;;;;;;17.00;10.10;;;;;;;5.95;78.27;99254.78;130430;1254;115220;-80
2023/03/31 05:31:13;;;;;;;24.20;14.70;;;;;;;5.99;78.54;99254.77;130509;1254;114772;-80
2023/03/31 05:34:15;;;;;;;17.00;13.40;;;;;;;6.05;78.39;99252.74;130710;1254;115211;-78
2023/03/31 05:37:19;;;;;;;20.10;13.40;;;;;;;6.12;78.70;99249.02;130644;1254;114708;-81
2023/03/31 05:40:21;;;;;;;21.30;13.70;;;;;;;6.21;78.85;99245.73;130564;1252;116421;-82
2023/03/31 05:43:23;;;;;;;20.70;13.10;;;;;;;6.32;78.90;99245.77;130667;1254;114797;-81
2023/03/31 05:46:27;;;;;;;19.10;13.70;;;;;;;6.43;78.88;99237.59;130685;1254;115172;-81
2023/03/31 05:49:31;;;;;;;18.30;13.80;;;;;;;6.57;78.89;99233.72;130731;1254;114727;-80
2023/03/31 05:52:34;;;;;;;23.80;13.60;;;;;;;6.73;79.15;99235.76;130382;1264;114992;-82
2023/03/31 05:55:38;;;;;;;22.70;14.20;;;;;;;6.90;79.31;99235.59;130585;1257;115083;-81
2023/03/31 05:58:40;;;;;;;18.80;13.30;;;;;;;7.12;79.20;99230.92;130690;1257;114724;-81
2023/03/31 06:01:42;;;;;;;21.60;13.20;;;;;;;7.33;79.32;99228.90;130323;1258;114771;-82
2023/03/31 06:04:45;;;;;;;19.90;13.60;;;;;;;7.57;79.10;99229.62;130429;1251;114800;-81
2023/03/31 06:07:47;;;;;;;19.40;13.30;;;;;;;7.85;79.15;99225.38;130364;1257;115124;-82
2023/03/31 06:10:50;;;;;;;18.80;12.50;;;;;;;8.15;79.27;99221.92;130788;1257;114731;-81
2023/03/31 06:13:52;;;;;;;20.70;12.00;;;;;;;8.44;79.04;99214.77;130764;1255;114728;-82
2023/03/31 06:16:54;;;;;;;18.40;11.60;;;;;;;8.75;78.86;99212.46;130476;1251;128085;-83
2023/03/31 06:19:57;;;;;;;18.60;10.30;;;;;;;9.07;78.67;99203.59;130574;1252;114779;-83
2023/03/31 06:22:59;;;;;;;22.60;12.70;;;;;;;9.42;78.46;99199.11;130736;1253;114733;-83
2023/03/31 06:26:05;;;;;;;18.40;9.30;;;;;;;9.76;77.74;99195.92;130724;1253;114722;-83
2023/03/31 06:29:08;;;;;;;18.40;8.50;;;;;;;10.05;77.49;99191.94;130410;1273;114731;-82
2023/03/31 06:32:10;;;;;;;11.30;7.90;;;;;;;10.30;77.30;99191.38;130680;1249;114775;-82
2023/03/31 06:35:13;;;;;;;20.20;7.30;;;;;;;10.54;76.66;99195.02;130716;1251;114794;-84
2023/03/31 06:38:15;;;;;;;16.90;9.70;;;;;;;10.75;76.43;99193.39;130492;1253;114759;-82
2023/03/31 06:41:19;;;;;;;14.70;8.70;;;;;;;10.95;75.89;99191.00;130443;1250;116355;-83
2023/03/31 06:44:23;;;;;;;14.10;7.10;;;;;;;11.14;75.59;99189.48;130735;1263;114723;-82
2023/03/31 06:47:25;;;;;;;12.20;7.80;;;;;;;11.33;74.99;99188.15;130485;1254;114926;-84
2023/03/31 06:50:27;;;;;;;11.90;8.50;;;;;;;11.53;74.84;99184.08;130740;1254;114854;-85
2023/03/31 06:53:33;;;;;;;18.70;9.50;;;;;;;11.73;74.39;99181.40;130822;1254;114664;-79
2023/03/31 06:56:36;;;;;;;12.30;7.60;;;;;;;11.90;74.08;99177.13;130471;1261;128415;-85
2023/03/31 06:59:38;;;;;;;15.40;8.10;;;;;;;12.13;73.95;99179.44;130527;1253;116414;-85
2023/03/31 07:02:40;;;;;;;10.30;7.40;;;;;;;12.45;74.03;99177.76;130729;1253;114757;-85
2023/03/31 07:05:48;;;;;;;9.70;7.00;;;;;;;12.89;73.73;99170.48;130713;1263;114721;-83
2023/03/31 07:08:50;;;;;;;14.20;7.10;;;;;;;13.32;73.05;99166.95;130865;1253;114944;-83
2023/03/31 07:11:52;;;;;;;11.20;7.10;;;;;;;13.70;72.59;99163.79;130783;1254;114792;-83
2023/03/31 07:14:55;;;;;;;10.50;6.50;;;;;;;13.99;71.94;99165.05;130795;1254;114765;-84
2023/03/31 07:18:00;;;;;;;10.80;6.50;;;;;;;14.21;71.14;99157.15;130278;1269;127755;-82
2023/03/31 07:21:04;;;;;;;14.30;6.70;;;;;;;14.37;70.56;99153.46;130555;1259;115275;-80
2023/03/31 07:24:07;;;;;;;11.40;7.00;;;;;;;14.54;70.18;99146.49;130843;1254;114711;-82
2023/03/31 07:27:09;;;;;;;11.50;7.00;;;;;;;14.65;69.53;99144.80;130506;1258;114778;-79
2023/03/31 07:30:17;;;;;;;10.40;5.80;;;;;;;14.77;69.15;99139.01;130691;1254;114720;-83
2023/03/31 07:33:23;;;;;;;12.80;6.90;;;;;;;14.84;68.54;99133.04;130327;1263;127947;-81
2023/03/31 07:36:28;;;;;;;13.10;7.50;;;;;;;14.90;68.39;99126.53;130693;1252;115422;-81
2023/03/31 07:39:30;;;;;;;12.90;7.80;;;;;;;14.98;67.93;99123.32;130776;1254;114762;-81
2023/03/31 07:42:33;;;;;;;16.80;8.90;;;;;;;15.04;67.58;99119.72;130679;1262;114741;-81
2023/03/31 07:45:38;;;;;;;13.20;9.10;;;;;;;15.10;67.49;99115.48;130518;1254;244773;-81
2023/03/31 07:48:40;;;;;;;18.20;10.00;;;;;;;15.10;66.85;99115.80;130669;1254;128964;-79
2023/03/31 07:51:42;;;;;;;15.70;8.90;;;;;;;15.06;66.56;99110.48;130477;1257;114804;-81
2023/03/31 07:54:45;;;;;;;10.30;7.90;;;;;;;15.04;66.51;99105.23;130312;1266;114754;-81
2023/03/31 07:57:47;;;;;;;12.00;8.00;;;;;;;15.05;66.22;99091.96;130554;1269;114750;-79
2023/03/31 08:00:49;;;;;;;11.00;7.70;;;;;;;15.04;65.99;99094.38;130290;1258;114804;-80
2023/03/31 08:03:54;;;;;;;12.60;7.80;;;;;;;15.11;66.15;99101.20;130567;1255;115105;-80
2023/03/31 08:06:57;;;;;;;14.60;7.60;;;;;;;15.45;66.30;99096.93;130663;1252;114797;-81
2023/03/31 08:09:59;;;;;;;12.80;7.70;;;;;;;15.99;66.02;99095.73;130154;1268;114922;-76
2023/03/31 08:13:01;;;;;;;16.30;7.90;;;;;;;16.52;65.70;99094.23;130544;1273;114867;-80
2023/03/31 08:16:04;;;;;;;14.10;8.10;;;;;;;16.93;64.70;99087.70;130366;1256;114782;-75
2023/03/31 08:19:06;;;;;;;9.90;7.40;;;;;;;17.29;64.21;99079.27;130703;1274;114766;-81
2023/03/31 08:22:08;;;;;;;11.90;7.80;;;;;;;17.63;63.04;99082.98;130588;1255;114916;-81
2023/03/31 08:25:11;;;;;;;11.90;8.60;;;;;;;17.80;62.55;99089.99;130733;1256;115204;-80
2023/03/31 08:28:13;;;;;;;14.60;8.40;;;;;;;18.02;61.82;99083.30;130652;1270;114638;-82
2023/03/31 08:31:17;;;;;;;13.20;6.80;;;;;;;17.96;61.14;99075.77;130607;1268;115124;-82
2023/03/31 08:34:19;;;;;;;12.90;8.10;;;;;;;17.84;61.06;99072.22;130712;1272;114721;-81
2023/03/31 08:37:21;;;;;;;14.00;8.30;;;;;;;17.83;61.02;99066.90;130675;1254;114722;-76
2023/03/31 08:40:25;;;;;;;9.50;7.10;;;;;;;17.87;60.72;99053.84;130673;1263;114779;-82
2023/03/31 08:43:33;;;;;;;11.70;8.50;;;;;;;17.99;60.76;99049.11;130508;1251;115538;-82
2023/03/31 08:46:36;;;;;;;10.70;6.60;;;;;;;18.15;59.99;99043.55;130506;1259;114731;-81
2023/03/31 08:49:46;;;;;;;8.40;6.50;;;;;;;18.27;59.71;99038.73;130714;1273;114794;-82
2023/03/31 08:53:12;;;;;;;11.90;6.80;;;;;;;18.30;58.95;99025.88;130771;1263;115933;-80
2023/03/31 08:56:16;;;;;;;11.70;7.20;;;;;;;18.27;58.58;99020.11;130423;1254;114731;-81
2023/03/31 08:59:39;;;;;;;9.60;6.80;;;;;;;18.24;57.95;99023.48;130414;1257;114812;-81
2023/03/31 09:02:48;;;;;;;14.00;7.50;;;;;;;18.25;58.17;99027.70;130709;1254;114833;-77
2023/03/31 09:06:01;;;;;;;10.50;6.60;;;;;;;18.43;58.66;99017.50;130734;1259;128462;-81
2023/03/31 09:09:08;;;;;;;13.90;8.00;;;;;;;18.72;58.39;99012.36;130594;1267;115323;-80
2023/03/31 09:12:14;;;;;;;13.20;8.50;;;;;;;18.90;57.98;99002.35;130721;1253;114693;-80
2023/03/31 09:15:25;;;;;;;10.30;6.10;;;;;;;19.08;57.65;99003.63;130692;1254;114647;-80
2023/03/31 09:18:35;;;;;;;10.50;5.40;;;;;;;19.26;57.24;99005.98;130403;1257;114798;-81
2023/03/31 09:21:41;;;;;;;7.40;5.60;;;;;;;19.38;56.72;99004.88;130506;1264;128841;-80
2023/03/31 09:24:55;;;;;;;10.70;7.00;;;;;;;19.48;56.19;98996.85;130554;1258;115358;-76
2023/03/31 09:27:59;;;;;;;8.90;4.00;;;;;;;19.60;56.13;98989.00;130187;1258;114712;-78
2023/03/31 09:31:10;;;;;;;8.60;3.80;;;;;;;19.81;55.45;98978.20;130678;1265;114802;-80
2023/03/31 09:34:16;;;;;;;9.60;4.80;;;;;;;19.92;54.62;98977.98;130643;1260;114736;-80
2023/03/31 09:37:18;;;;;;;11.60;4.30;;;;;;;19.93;54.47;98976.05;130567;1267;127873;-77
2023/03/31 09:40:24;;;;;;;10.50;4.00;;;;;;;19.88;54.14;98973.80;130439;1267;114835;-75
2023/03/31 09:43:28;;;;;;;6.50;3.70;;;;;;;19.88;54.16;98971.83;130672;1265;114682;-79
2023/03/31 09:46:34;;;;;;;9.40;3.90;;;;;;;19.94;53.96;98972.08;130403;1259;114725;-79
2023/03/31 09:49:36;;;;;;;7.70;3.70;;;;;;;19.97;53.53;98966.88;130621;1273;114826;-77
2023/03/31 09:52:51;;;;;;;5.80;3.60;;;;;;;19.93;53.19;98957.91;130575;1257;114785;-81
2023/03/31 09:55:55;;;;;;;15.50;4.80;;;;;;;19.97;53.16;98952.40;130640;1255;114795;-80
2023/03/31 09:59:00;;;;;;;;;;;;;;;19.90;52.73;98949.30;130760;1254;114657;-77
2023/03/31 10:02:06;;;;;;;;;;;;;;;19.77;52.54;98943.16;130746;1263;114758;-77
2023/03/31 10:05:27;;;;;;;7.40;3.30;;;;;;;19.56;52.42;98938.20;130388;1273;114811;-79
2023/03/31 10:08:59;;;;;;;6.20;3.00;;;;;;;19.37;52.44;98930.09;130370;1273;127909;-79
2023/03/31 10:12:23;;;;;;;7.70;3.30;;;;;;;19.17;52.38;98930.39;130803;1259;115159;-79
2023/03/31 10:15:26;;;;;;;12.80;4.00;;;;;;;19.02;52.58;98925.91;130709;1254;114801;-79
2023/03/31 10:18:37;;;;;;;6.20;3.50;;;;;;;18.87;52.54;98920.17;130658;1254;114797;-78
2023/03/31 10:21:39;;;;;;;9.00;3.90;;;;;;;18.76;52.47;98918.23;130738;1264;114724;-76
2023/03/31 10:24:44;;;;;;;10.30;4.30;;;;;;;18.67;52.45;98914.55;130635;1270;114727;-79
2023/03/31 10:27:50;;;;;;;9.30;4.50;;;;;;;18.60;52.66;98909.09;130404;1267;114875;-79
2023/03/31 10:31:01;;;;;;;9.00;4.20;;;;;;;18.56;52.57;98901.73;130567;1254;114834;-75
2023/03/31 10:34:05;;;;;;;8.30;3.90;;;;;;;18.48;52.60;98903.33;130694;1253;114757;-79
2023/03/31 10:37:13;;;;;;;11.90;4.20;;;;;;;18.45;52.47;98896.50;130697;1254;114795;-78
2023/03/31 10:40:20;;;;;;;10.00;4.70;;;;;;;18.42;52.33;98894.39;130472;1259;127816;-79
2023/03/31 10:43:29;;;;;;;7.20;4.30;;;;;;;18.44;52.52;98895.59;130622;1254;115170;-79
2023/03/31 10:46:48;;;;;;;5.30;3.30;;;;;;;18.46;52.42;98888.50;130773;1254;114714;-79
2023/03/31 10:49:56;;;;;;;6.50;3.70;;;;;;;18.43;52.24;98880.56;130512;1267;114811;-79
2023/03/31 10:53:10;;;;;;;8.40;3.50;;;;;;;18.37;52.40;98873.28;130614;1251;114782;-78
2023/03/31 10:56:36;;;;;;;6.30;3.00;;;;;;;18.40;52.60;98870.85;130618;1257;127809;-78
2023/03/31 10:59:58;;;;;;;11.40;3.80;;;;;;;18.41;52.36;98872.04;130654;1269;115156;-74
2023/03/31 11:03:21;;;;;;;7.80;2.70;;;;;;;18.35;52.14;98864.20;130329;1258;115519;-78
2023/03/31 11:06:32;;;;;;;10.10;4.00;;;;;;;18.31;52.27;98856.98;130206;1257;114798;-65
2023/03/31 11:10:02;;;;;;;7.70;4.20;;;;;;;18.36;52.45;98854.98;130664;1251;114702;-69
2023/03/31 11:13:16;;;;;;;9.40;4.30;;;;;;;18.47;52.63;98847.41;130545;1273;129179;-73
2023/03/31 11:16:53;;;;;;;8.40;3.10;;;;;;;18.52;52.13;98843.69;130150;1274;115271;-76
2023/03/31 11:20:11;;;;;;;8.00;3.00;;;;;;;18.56;51.91;98835.98;130584;1273;114734;-78
2023/03/31 11:23:27;;;;;;;4.30;2.60;;;;;;;18.69;51.98;98832.36;130559;1264;114754;-67
2023/03/31 11:26:47;;;;;;;11.60;3.10;;;;;;;18.81;51.92;98816.98;130218;1251;114757;-65
2023/03/31 11:30:15;;;;;;;9.30;2.90;;;;;;;19.01;51.86;98810.50;130571;1264;128972;-72
2023/03/31 11:33:46;;;;;;;7.40;2.90;;;;;;;19.11;51.35;98801.83;130548;1255;116366;-75
2023/03/31 11:36:51;;;;;;;9.30;3.10;;;;;;;19.18;51.21;98796.44;130651;1254;114804;-73
2023/03/31 11:40:06;;;;;;;11.30;3.30;;;;;;;19.10;51.02;98792.51;130620;1255;114725;-65
2023/03/31 11:43:08;;;;;;;6.00;3.10;;;;;;;19.08;51.22;98785.00;130538;1254;114759;-69
2023/03/31 11:46:18;;;;;;;7.20;3.20;;;;;;;19.05;50.88;98778.41;130566;1254;115095;-71
2023/03/31 11:49:37;;;;;;;6.30;3.00;;;;;;;18.95;50.92;98775.52;130688;1274;114753;-69
2023/03/31 11:52:53;;;;;;;7.60;3.60;;;;;;;18.85;50.96;98768.48;130519;1257;114707;-66
2023/03/31 11:55:57;;;;;;;9.70;4.30;;;;;;;18.78;50.99;98764.92;130563;1254;114722;-69
2023/03/31 11:58:59;;;;;;;6.40;3.20;;;;;;;18.77;51.21;98761.70;130474;1254;114982;-68
2023/03/31 12:02:22;;;;;;;5.00;2.70;;;;;;;18.79;50.84;98756.81;130472;1274;114835;-73
2023/03/31 12:05:26;;;;;;;6.10;3.20;;;;;;;18.72;50.45;98756.98;130437;1251;114795;-73
2023/03/31 12:08:35;;;;;;;11.70;4.10;;;;;;;18.71;50.60;98751.58;130392;1254;115125;-74
2023/03/31 12:11:46;;;;;;;10.60;3.60;;;;;;;18.77;50.78;98745.45;130604;1254;114801;-76
2023/03/31 12:15:05;;;;;;;7.80;3.00;;;;;;;18.85;50.66;98737.73;130692;1253;114843;-73
2023/03/31 12:18:18;;;;;;;6.30;2.70;;;;;;;18.84;50.34;98737.42;130307;1251;128086;-65
2023/03/31 12:21:21;;;;;;;11.90;2.80;;;;;;;18.78;50.09;98731.55;130695;1251;114857;-70
2023/03/31 12:24:24;;;;;;;7.60;3.90;;;;;;;18.69;50.37;98732.05;130362;1274;114767;-65
2023/03/31 12:27:41;;;;;;;12.20;3.80;;;;;;;18.55;50.30;98727.93;130611;1254;114781;-77
2023/03/31 12:30:44;;;;;;;10.40;2.70;;;;;;;18.40;50.66;98722.98;130456;1260;114894;-78
2023/03/31 12:33:53;;;;;;;5.40;2.50;;;;;;;18.27;50.65;98715.74;130536;1274;115141;-77
2023/03/31 12:36:59;;;;;;;7.10;3.10;;;;;;;18.16;51.32;98713.29;130194;1274;115233;-75
2023/03/31 12:40:26;;;;;;;7.60;2.90;;;;;;;18.11;51.69;98708.64;130306;1254;114910;-72
2023/03/31 12:43:53;;;;;;;9.70;2.40;;;;;;;18.10;51.63;98706.90;130199;1257;114804;-71
2023/03/31 12:47:24;;;;;;;3.50;2.10;;;;;;;18.07;51.40;98703.94;130581;1264;115271;-76
2023/03/31 12:51:02;;;;;;;4.80;1.90;;;;;;;18.03;51.29;98700.04;130281;1273;128370;-75
2023/03/31 12:54:47;;;;;;;6.20;2.10;;;;;;;18.06;51.56;98693.70;129615;1279;114859;-75
2023/03/31 12:57:49;;;;;;;3.40;1.70;;;;;;;18.16;52.03;98687.30;129822;1261;115254;-76
2023/03/31 13:01:17;;;;;;;6.40;2.60;;;;;;;18.26;52.40;98682.77;129888;1280;114899;-72
2023/03/31 13:04:20;;;;;;;7.00;2.20;;;;;;;18.34;52.47;98679.52;129905;1261;114823;-70
2023/03/31 13:07:25;;;;;;;6.70;2.60;;;;;;;18.43;52.56;98670.83;130012;1260;114994;-75
2023/03/31 13:10:30;;;;;;;8.20;2.90;;;;;;;18.49;52.63;98667.48;129754;1261;115518;-74
2023/03/31 13:13:32;;;;;;;5.70;3.30;;;;;;;18.49;52.53;98658.96;129906;1260;114904;-71
2023/03/31 13:16:35;;;;;;;7.50;2.70;;;;;;;18.55;52.77;98658.16;129839;1281;115224;-66
2023/03/31 13:19:40;;;;;;;8.60;2.80;;;;;;;18.56;52.54;98657.89;129789;1264;114826;-65
2023/03/31 13:22:47;;;;;;;10.20;2.90;;;;;;;18.56;52.58;98656.05;129807;1264;127632;-65
2023/03/31 13:25:54;;;;;;;12.50;4.20;;;;;;;18.40;52.12;98653.27;130017;1263;115323;-71
2023/03/31 13:29:21;;;;;;;26.90;9.20;;;;;;;18.15;52.06;98652.55;129481;1258;115478;-70
2023/03/31 13:32:27;;;;;;;17.60;4.80;;;;;;;17.91;52.57;98644.90;130181;1258;115418;-69
2023/03/31 13:35:32;;;;;;;9.60;3.10;;;;;;;17.68;52.96;98642.98;130566;1254;114730;-66
2023/03/31 13:39:02;;;;;;;11.30;4.20;;;;;;;17.50;53.74;98639.33;130449;1273;128760;-64
2023/03/31 13:42:31;;;;;;;6.40;4.00;;;;;;;17.31;54.45;98633.38;130172;1254;115250;-69
2023/03/31 13:46:19;;;;;;;8.80;3.70;;;;;;;17.04;54.88;98627.77;130261;1255;115164;-66
2023/03/31 13:49:40;;;;;;;12.10;4.10;;;;;;;16.76;55.68;98625.81;129441;1267;114827;-66
2023/03/31 13:52:42;;;;;;;8.20;3.90;;;;;;;16.53;56.32;98619.83;129751;1284;114943;-71
2023/03/31 13:56:22;;;;;;;9.50;3.40;;;;;;;16.35;56.96;98616.33;129621;1260;115016;-74
2023/03/31 13:59:40;;;;;;;9.00;2.80;;;;;;;16.16;57.50;98614.36;129254;1264;115595;-73
2023/03/31 14:02:58;;;;;;;6.20;3.20;;;;;;;16.00;57.88;98604.45;129514;1263;114843;-71
2023/03/31 14:06:11;;;;;;;10.80;3.50;;;;;;;15.86;58.16;98599.80;129567;1259;115345;-72
2023/03/31 14:09:35;;;;;;;10.00;3.80;;;;;;;15.73;58.38;98590.60;129594;1267;114760;-72
2023/03/31 14:12:38;;;;;;;11.20;3.80;;;;;;;15.62;59.40;98588.75;129547;1261;127914;-73
2023/03/31 14:15:46;;;;;;;11.40;4.50;;;;;;;15.57;59.73;98583.88;129581;1257;114896;-72
2023/03/31 14:18:52;;;;;;;8.50;3.80;;;;;;;15.50;60.09;98581.15;129471;1263;114939;-72
2023/03/31 14:22:07;;;;;;;8.30;4.00;;;;;;;15.36;60.44;98578.92;129707;1257;114901;-73